sensor_id;sensor_type;location;lat;lon;timestamp;P1;durP1;ratioP1;P2;durP2;ratioP2
16075;SDS011;8142;48.242;11.644;2022-09-03T00:01:45;3.87;;;2.50;;
16075;SDS011;8142;48.242;11.644;2022-09-03T00:07:38;10.93;;;6.73;;
16075;SDS011;8142;48.242;11.644;2022-09-03T00:10:30;10.17;;;7.10;;
16075;SDS011;8142;48.242;11.644;2022-09-03T00:13:23;12.70;;;7.17;;
16075;SDS011;8142;48.242;11.644;2022-09-03T00:16:04;10.93;;;7.00;;
16075;SDS011;8142;48.242;11.644;2022-09-03T00:18:35;8.93;;;6.20;;
16075;SDS011;8142;48.242;11.644;2022-09-03T00:21:08;8.33;;;5.77;;
16075;SDS011;8142;48.242;11.644;2022-09-03T00:23:39;6.03;;;4.90;;
16075;SDS011;8142;48.242;11.644;2022-09-03T00:28:37;4.30;;;3.03;;
16075;SDS011;8142;48.242;11.644;2022-09-03T00:31:24;4.27;;;2.60;;
16075;SDS011;8142;48.242;11.644;2022-09-03T00:33:59;2.70;;;2.27;;
16075;SDS011;8142;48.242;11.644;2022-09-03T00:36:39;3.57;;;2.90;;
16075;SDS011;8142;48.242;11.644;2022-09-03T00:39:11;5.10;;;3.20;;
16075;SDS011;8142;48.242;11.644;2022-09-03T00:41:47;3.60;;;2.70;;
16075;SDS011;8142;48.242;11.644;2022-09-03T00:47:16;4.00;;;2.83;;
16075;SDS011;8142;48.242;11.644;2022-09-03T00:50:03;3.40;;;2.70;;
16075;SDS011;8142;48.242;11.644;2022-09-03T00:55:32;2.40;;;2.20;;
16075;SDS011;8142;48.242;11.644;2022-09-03T01:01:23;2.30;;;2.10;;
16075;SDS011;8142;48.242;11.644;2022-09-03T01:04:16;4.00;;;2.20;;
16075;SDS011;8142;48.242;11.644;2022-09-03T01:07:16;2.53;;;2.00;;
16075;SDS011;8142;48.242;11.644;2022-09-03T01:09:43;2.10;;;1.90;;
16075;SDS011;8142;48.242;11.644;2022-09-03T01:15:05;2.27;;;1.80;;
16075;SDS011;8142;48.242;11.644;2022-09-03T01:20:35;2.37;;;2.10;;
16075;SDS011;8142;48.242;11.644;2022-09-03T01:34:03;2.33;;;2.00;;
16075;SDS011;8142;48.242;11.644;2022-09-03T01:36:42;2.33;;;2.10;;
16075;SDS011;8142;48.242;11.644;2022-09-03T01:41:58;3.00;;;2.20;;
16075;SDS011;8142;48.242;11.644;2022-09-03T01:55:53;2.30;;;2.10;;
16075;SDS011;8142;48.242;11.644;2022-09-03T01:58:45;4.63;;;2.37;;
16075;SDS011;8142;48.242;11.644;2022-09-03T02:01:26;4.57;;;2.00;;
16075;SDS011;8142;48.242;11.644;2022-09-03T02:03:57;3.13;;;2.10;;
16075;SDS011;8142;48.242;11.644;2022-09-03T02:06:24;2.40;;;2.20;;
16075;SDS011;8142;48.242;11.644;2022-09-03T02:08:51;2.93;;;2.20;;
16075;SDS011;8142;48.242;11.644;2022-09-03T02:11:18;3.10;;;2.10;;
16075;SDS011;8142;48.242;11.644;2022-09-03T02:13:45;2.40;;;2.17;;
16075;SDS011;8142;48.242;11.644;2022-09-03T02:16:16;3.00;;;2.20;;
16075;SDS011;8142;48.242;11.644;2022-09-03T02:18:47;2.50;;;1.97;;
16075;SDS011;8142;48.242;11.644;2022-09-03T02:21:17;3.87;;;2.23;;
16075;SDS011;8142;48.242;11.644;2022-09-03T02:23:45;2.57;;;2.37;;
16075;SDS011;8142;48.242;11.644;2022-09-03T02:26:12;2.50;;;2.30;;
16075;SDS011;8142;48.242;11.644;2022-09-03T02:28:42;4.27;;;2.97;;
16075;SDS011;8142;48.242;11.644;2022-09-03T02:31:09;3.87;;;3.10;;
16075;SDS011;8142;48.242;11.644;2022-09-03T02:33:38;3.07;;;2.77;;
16075;SDS011;8142;48.242;11.644;2022-09-03T02:36:08;3.10;;;2.80;;
16075;SDS011;8142;48.242;11.644;2022-09-03T02:38:36;4.00;;;2.63;;
16075;SDS011;8142;48.242;11.644;2022-09-03T02:41:05;2.77;;;2.50;;
16075;SDS011;8142;48.242;11.644;2022-09-03T02:43:33;3.20;;;2.27;;
16075;SDS011;8142;48.242;11.644;2022-09-03T02:46:12;3.27;;;2.57;;
16075;SDS011;8142;48.242;11.644;2022-09-03T02:48:42;3.90;;;2.40;;
16075;SDS011;8142;48.242;11.644;2022-09-03T02:51:08;3.07;;;2.27;;
16075;SDS011;8142;48.242;11.644;2022-09-03T02:53:34;5.67;;;2.40;;
16075;SDS011;8142;48.242;11.644;2022-09-03T02:56:00;3.13;;;2.80;;
16075;SDS011;8142;48.242;11.644;2022-09-03T02:58:26;3.07;;;2.50;;
16075;SDS011;8142;48.242;11.644;2022-09-03T03:00:53;4.33;;;2.60;;
16075;SDS011;8142;48.242;11.644;2022-09-03T03:03:19;2.50;;;2.30;;
16075;SDS011;8142;48.242;11.644;2022-09-03T03:05:49;2.80;;;2.47;;
16075;SDS011;8142;48.242;11.644;2022-09-03T03:08:18;3.17;;;2.23;;
16075;SDS011;8142;48.242;11.644;2022-09-03T03:10:48;4.10;;;2.40;;
16075;SDS011;8142;48.242;11.644;2022-09-03T03:13:16;2.73;;;2.27;;
16075;SDS011;8142;48.242;11.644;2022-09-03T03:15:42;2.50;;;2.30;;
16075;SDS011;8142;48.242;11.644;2022-09-03T03:18:09;2.83;;;2.50;;
16075;SDS011;8142;48.242;11.644;2022-09-03T03:20:38;2.53;;;2.30;;
16075;SDS011;8142;48.242;11.644;2022-09-03T03:23:04;2.50;;;2.30;;
16075;SDS011;8142;48.242;11.644;2022-09-03T03:25:31;2.70;;;2.47;;
16075;SDS011;8142;48.242;11.644;2022-09-03T03:27:58;2.60;;;2.40;;
16075;SDS011;8142;48.242;11.644;2022-09-03T03:30:24;3.23;;;2.90;;
16075;SDS011;8142;48.242;11.644;2022-09-03T03:32:51;2.70;;;2.50;;
16075;SDS011;8142;48.242;11.644;2022-09-03T03:35:19;2.27;;;2.10;;
16075;SDS011;8142;48.242;11.644;2022-09-03T03:37:45;3.00;;;2.37;;
16075;SDS011;8142;48.242;11.644;2022-09-03T03:40:11;3.77;;;2.13;;
16075;SDS011;8142;48.242;11.644;2022-09-03T03:42:37;2.87;;;2.53;;
16075;SDS011;8142;48.242;11.644;2022-09-03T03:45:04;3.20;;;2.40;;
16075;SDS011;8142;48.242;11.644;2022-09-03T03:47:31;2.57;;;2.37;;
16075;SDS011;8142;48.242;11.644;2022-09-03T03:49:57;2.93;;;2.47;;
16075;SDS011;8142;48.242;11.644;2022-09-03T03:52:24;2.47;;;2.27;;
16075;SDS011;8142;48.242;11.644;2022-09-03T03:54:51;3.00;;;2.50;;
16075;SDS011;8142;48.242;11.644;2022-09-03T03:57:17;3.03;;;2.67;;
16075;SDS011;8142;48.242;11.644;2022-09-03T03:59:44;2.60;;;2.40;;
16075;SDS011;8142;48.242;11.644;2022-09-03T04:02:11;2.53;;;2.27;;
16075;SDS011;8142;48.242;11.644;2022-09-03T04:04:37;2.63;;;2.43;;
16075;SDS011;8142;48.242;11.644;2022-09-03T04:07:03;2.70;;;2.50;;
16075;SDS011;8142;48.242;11.644;2022-09-03T04:09:29;5.00;;;2.50;;
16075;SDS011;8142;48.242;11.644;2022-09-03T04:11:54;2.87;;;2.23;;
16075;SDS011;8142;48.242;11.644;2022-09-03T04:14:23;3.33;;;2.40;;
16075;SDS011;8142;48.242;11.644;2022-09-03T04:16:50;2.57;;;2.37;;
16075;SDS011;8142;48.242;11.644;2022-09-03T04:19:16;3.50;;;2.53;;
16075;SDS011;8142;48.242;11.644;2022-09-03T04:21:43;2.67;;;2.47;;
16075;SDS011;8142;48.242;11.644;2022-09-03T04:24:09;2.70;;;2.50;;
16075;SDS011;8142;48.242;11.644;2022-09-03T04:26:35;3.57;;;2.90;;
16075;SDS011;8142;48.242;11.644;2022-09-03T04:29:05;6.00;;;2.73;;
16075;SDS011;8142;48.242;11.644;2022-09-03T04:31:32;3.17;;;2.87;;
16075;SDS011;8142;48.242;11.644;2022-09-03T04:33:59;4.07;;;2.83;;
16075;SDS011;8142;48.242;11.644;2022-09-03T04:36:26;3.33;;;2.70;;
16075;SDS011;8142;48.242;11.644;2022-09-03T04:38:54;5.27;;;3.20;;
16075;SDS011;8142;48.242;11.644;2022-09-03T04:41:26;3.37;;;3.07;;
16075;SDS011;8142;48.242;11.644;2022-09-03T04:43:54;4.67;;;2.90;;
16075;SDS011;8142;48.242;11.644;2022-09-03T04:46:23;3.13;;;2.83;;
16075;SDS011;8142;48.242;11.644;2022-09-03T04:48:54;3.33;;;3.03;;
16075;SDS011;8142;48.242;11.644;2022-09-03T04:51:21;3.40;;;3.20;;
16075;SDS011;8142;48.242;11.644;2022-09-03T04:53:52;3.70;;;3.40;;
16075;SDS011;8142;48.242;11.644;2022-09-03T04:56:21;4.70;;;3.30;;
16075;SDS011;8142;48.242;11.644;2022-09-03T04:58:53;4.47;;;3.37;;
16075;SDS011;8142;48.242;11.644;2022-09-03T05:01:20;3.73;;;3.20;;
16075;SDS011;8142;48.242;11.644;2022-09-03T05:03:48;3.53;;;3.23;;
16075;SDS011;8142;48.242;11.644;2022-09-03T05:06:17;3.70;;;3.13;;
16075;SDS011;8142;48.242;11.644;2022-09-03T05:08:47;4.23;;;2.97;;
16075;SDS011;8142;48.242;11.644;2022-09-03T05:11:14;3.43;;;3.13;;
16075;SDS011;8142;48.242;11.644;2022-09-03T05:13:40;3.77;;;3.00;;
16075;SDS011;8142;48.242;11.644;2022-09-03T05:16:07;3.27;;;2.97;;
16075;SDS011;8142;48.242;11.644;2022-09-03T05:18:35;3.43;;;3.07;;
16075;SDS011;8142;48.242;11.644;2022-09-03T05:21:05;5.70;;;3.30;;
16075;SDS011;8142;48.242;11.644;2022-09-03T05:23:39;4.03;;;2.97;;
16075;SDS011;8142;48.242;11.644;2022-09-03T05:26:08;4.20;;;3.20;;
16075;SDS011;8142;48.242;11.644;2022-09-03T05:28:36;3.60;;;3.20;;
16075;SDS011;8142;48.242;11.644;2022-09-03T05:31:08;3.83;;;2.97;;
16075;SDS011;8142;48.242;11.644;2022-09-03T05:33:39;3.30;;;3.00;;
16075;SDS011;8142;48.242;11.644;2022-09-03T05:36:07;5.40;;;3.03;;
16075;SDS011;8142;48.242;11.644;2022-09-03T05:38:35;3.53;;;2.50;;
16075;SDS011;8142;48.242;11.644;2022-09-03T05:41:05;3.20;;;2.67;;
16075;SDS011;8142;48.242;11.644;2022-09-03T05:43:33;2.83;;;2.63;;
16075;SDS011;8142;48.242;11.644;2022-09-03T05:46:00;3.13;;;2.70;;
16075;SDS011;8142;48.242;11.644;2022-09-03T05:48:28;3.80;;;2.80;;
16075;SDS011;8142;48.242;11.644;2022-09-03T05:51:02;2.90;;;2.60;;
16075;SDS011;8142;48.242;11.644;2022-09-03T05:53:33;3.13;;;2.40;;
16075;SDS011;8142;48.242;11.644;2022-09-03T05:56:02;2.63;;;2.40;;
16075;SDS011;8142;48.242;11.644;2022-09-03T05:58:36;2.60;;;2.40;;
16075;SDS011;8142;48.242;11.644;2022-09-03T06:01:09;2.87;;;2.50;;
16075;SDS011;8142;48.242;11.644;2022-09-03T06:03:39;3.17;;;2.50;;
16075;SDS011;8142;48.242;11.644;2022-09-03T06:06:06;3.50;;;2.47;;
16075;SDS011;8142;48.242;11.644;2022-09-03T06:08:33;3.87;;;2.40;;
16075;SDS011;8142;48.242;11.644;2022-09-03T06:11:00;4.50;;;2.63;;
16075;SDS011;8142;48.242;11.644;2022-09-03T06:13:28;3.17;;;2.50;;
16075;SDS011;8142;48.242;11.644;2022-09-03T06:15:58;3.20;;;2.40;;
16075;SDS011;8142;48.242;11.644;2022-09-03T06:18:25;2.60;;;2.40;;
16075;SDS011;8142;48.242;11.644;2022-09-03T06:20:58;2.50;;;2.30;;
16075;SDS011;8142;48.242;11.644;2022-09-03T06:23:26;2.90;;;2.60;;
16075;SDS011;8142;48.242;11.644;2022-09-03T06:26:11;2.83;;;1.93;;
16075;SDS011;8142;48.242;11.644;2022-09-03T06:28:39;2.47;;;2.27;;
16075;SDS011;8142;48.242;11.644;2022-09-03T06:31:08;2.73;;;2.30;;
16075;SDS011;8142;48.242;11.644;2022-09-03T06:33:39;2.90;;;2.60;;
16075;SDS011;8142;48.242;11.644;2022-09-03T06:36:07;2.33;;;2.13;;
16075;SDS011;8142;48.242;11.644;2022-09-03T06:38:35;2.53;;;2.30;;
16075;SDS011;8142;48.242;11.644;2022-09-03T06:41:04;4.17;;;2.37;;
16075;SDS011;8142;48.242;11.644;2022-09-03T06:43:36;3.73;;;2.50;;
16075;SDS011;8142;48.242;11.644;2022-09-03T06:46:08;4.20;;;2.70;;
16075;SDS011;8142;48.242;11.644;2022-09-03T06:48:36;4.90;;;2.40;;
16075;SDS011;8142;48.242;11.644;2022-09-03T06:51:04;2.60;;;2.40;;
16075;SDS011;8142;48.242;11.644;2022-09-03T06:53:32;5.13;;;2.70;;
16075;SDS011;8142;48.242;11.644;2022-09-03T06:56:00;5.33;;;2.13;;
16075;SDS011;8142;48.242;11.644;2022-09-03T06:58:28;4.27;;;2.37;;
16075;SDS011;8142;48.242;11.644;2022-09-03T07:01:05;3.27;;;2.73;;
16075;SDS011;8142;48.242;11.644;2022-09-03T07:03:33;4.30;;;2.57;;
16075;SDS011;8142;48.242;11.644;2022-09-03T07:06:00;3.70;;;2.30;;
16075;SDS011;8142;48.242;11.644;2022-09-03T07:08:27;4.07;;;2.77;;
16075;SDS011;8142;48.242;11.644;2022-09-03T07:10:54;3.00;;;2.70;;
16075;SDS011;8142;48.242;11.644;2022-09-03T07:13:20;3.00;;;2.70;;
16075;SDS011;8142;48.242;11.644;2022-09-03T07:15:46;4.57;;;2.67;;
16075;SDS011;8142;48.242;11.644;2022-09-03T07:18:12;4.20;;;2.83;;
16075;SDS011;8142;48.242;11.644;2022-09-03T07:20:37;3.20;;;2.90;;
16075;SDS011;8142;48.242;11.644;2022-09-03T07:23:03;3.23;;;2.93;;
16075;SDS011;8142;48.242;11.644;2022-09-03T07:25:29;3.30;;;3.00;;
16075;SDS011;8142;48.242;11.644;2022-09-03T07:27:55;3.77;;;3.13;;
16075;SDS011;8142;48.242;11.644;2022-09-03T07:30:22;4.83;;;3.00;;
16075;SDS011;8142;48.242;11.644;2022-09-03T07:32:50;3.80;;;2.90;;
16075;SDS011;8142;48.242;11.644;2022-09-03T07:35:18;4.80;;;3.27;;
16075;SDS011;8142;48.242;11.644;2022-09-03T07:37:44;3.63;;;3.00;;
16075;SDS011;8142;48.242;11.644;2022-09-03T07:40:10;4.10;;;3.47;;
16075;SDS011;8142;48.242;11.644;2022-09-03T07:42:36;4.27;;;3.30;;
16075;SDS011;8142;48.242;11.644;2022-09-03T07:45:05;3.60;;;3.00;;
16075;SDS011;8142;48.242;11.644;2022-09-03T07:47:35;5.97;;;3.20;;
16075;SDS011;8142;48.242;11.644;2022-09-03T07:50:02;6.90;;;3.30;;
16075;SDS011;8142;48.242;11.644;2022-09-03T07:52:29;3.43;;;3.07;;
16075;SDS011;8142;48.242;11.644;2022-09-03T07:54:55;4.17;;;2.50;;
16075;SDS011;8142;48.242;11.644;2022-09-03T07:57:21;2.83;;;2.30;;
16075;SDS011;8142;48.242;11.644;2022-09-03T07:59:47;3.33;;;3.03;;
16075;SDS011;8142;48.242;11.644;2022-09-03T08:02:12;3.63;;;3.00;;
16075;SDS011;8142;48.242;11.644;2022-09-03T08:04:38;3.30;;;3.00;;
16075;SDS011;8142;48.242;11.644;2022-09-03T08:07:05;3.40;;;3.07;;
16075;SDS011;8142;48.242;11.644;2022-09-03T08:09:31;3.70;;;2.97;;
16075;SDS011;8142;48.242;11.644;2022-09-03T08:11:57;5.10;;;3.23;;
16075;SDS011;8142;48.242;11.644;2022-09-03T08:14:23;3.80;;;3.10;;
16075;SDS011;8142;48.242;11.644;2022-09-03T08:16:49;3.20;;;2.90;;
16075;SDS011;8142;48.242;11.644;2022-09-03T08:19:15;5.37;;;3.40;;
16075;SDS011;8142;48.242;11.644;2022-09-03T08:21:42;3.33;;;3.03;;
16075;SDS011;8142;48.242;11.644;2022-09-03T08:24:13;3.83;;;2.90;;
16075;SDS011;8142;48.242;11.644;2022-09-03T08:26:40;4.30;;;3.00;;
16075;SDS011;8142;48.242;11.644;2022-09-03T08:29:07;3.63;;;3.20;;
16075;SDS011;8142;48.242;11.644;2022-09-03T08:31:33;3.50;;;3.13;;
16075;SDS011;8142;48.242;11.644;2022-09-03T08:34:01;3.87;;;2.97;;
16075;SDS011;8142;48.242;11.644;2022-09-03T08:36:30;3.10;;;2.77;;
16075;SDS011;8142;48.242;11.644;2022-09-03T08:38:58;3.73;;;3.03;;
16075;SDS011;8142;48.242;11.644;2022-09-03T08:45:35;3.27;;;2.97;;
16075;SDS011;8142;48.242;11.644;2022-09-03T08:47:33;4.57;;;2.93;;
16075;SDS011;8142;48.242;11.644;2022-09-03T08:50:39;3.63;;;3.00;;
16075;SDS011;8142;48.242;11.644;2022-09-03T08:53:02;3.30;;;3.00;;
16075;SDS011;8142;48.242;11.644;2022-09-03T08:55:49;3.20;;;2.87;;
16075;SDS011;8142;48.242;11.644;2022-09-03T08:58:29;5.20;;;3.07;;
16075;SDS011;8142;48.242;11.644;2022-09-03T09:09:08;3.40;;;3.00;;
16075;SDS011;8142;48.242;11.644;2022-09-03T09:17:30;3.17;;;2.87;;
16075;SDS011;8142;48.242;11.644;2022-09-03T09:22:54;3.23;;;2.93;;
16075;SDS011;8142;48.242;11.644;2022-09-03T09:25:31;4.97;;;3.00;;
16075;SDS011;8142;48.242;11.644;2022-09-03T09:28:19;3.20;;;2.90;;
16075;SDS011;8142;48.242;11.644;2022-09-03T09:30:47;5.87;;;3.00;;
16075;SDS011;8142;48.242;11.644;2022-09-03T09:33:16;5.37;;;2.97;;
16075;SDS011;8142;48.242;11.644;2022-09-03T09:35:43;3.20;;;2.90;;
16075;SDS011;8142;48.242;11.644;2022-09-03T09:38:09;3.53;;;2.80;;
16075;SDS011;8142;48.242;11.644;2022-09-03T09:40:37;3.87;;;2.70;;
16075;SDS011;8142;48.242;11.644;2022-09-03T09:43:07;4.90;;;2.90;;
16075;SDS011;8142;48.242;11.644;2022-09-03T09:45:35;3.97;;;2.73;;
16075;SDS011;8142;48.242;11.644;2022-09-03T09:48:08;3.40;;;2.77;;
16075;SDS011;8142;48.242;11.644;2022-09-03T09:50:40;3.27;;;2.90;;
16075;SDS011;8142;48.242;11.644;2022-09-03T09:53:07;3.53;;;2.87;;
16075;SDS011;8142;48.242;11.644;2022-09-03T09:56:18;5.03;;;2.50;;
16075;SDS011;8142;48.242;11.644;2022-09-03T09:58:44;2.73;;;2.30;;
16075;SDS011;8142;48.242;11.644;2022-09-03T10:01:20;3.90;;;2.43;;
16075;SDS011;8142;48.242;11.644;2022-09-03T10:06:29;2.53;;;2.27;;
16075;SDS011;8142;48.242;11.644;2022-09-03T10:09:16;3.07;;;2.80;;
16075;SDS011;8142;48.242;11.644;2022-09-03T10:11:47;4.63;;;2.77;;
16075;SDS011;8142;48.242;11.644;2022-09-03T10:15:17;4.37;;;2.97;;
16075;SDS011;8142;48.242;11.644;2022-09-03T10:20:09;3.37;;;2.80;;
16075;SDS011;8142;48.242;11.644;2022-09-03T10:25:28;3.87;;;2.50;;
16075;SDS011;8142;48.242;11.644;2022-09-03T10:28:04;2.57;;;2.37;;
16075;SDS011;8142;48.242;11.644;2022-09-03T10:30:38;4.20;;;2.20;;
16075;SDS011;8142;48.242;11.644;2022-09-03T10:33:33;2.60;;;2.40;;
16075;SDS011;8142;48.242;11.644;2022-09-03T10:39:21;3.80;;;2.70;;
16075;SDS011;8142;48.242;11.644;2022-09-03T10:45:06;2.60;;;2.40;;
16075;SDS011;8142;48.242;11.644;2022-09-03T10:48:00;4.10;;;2.47;;
16075;SDS011;8142;48.242;11.644;2022-09-03T10:51:08;2.37;;;2.17;;
16075;SDS011;8142;48.242;11.644;2022-09-03T10:54:04;65.13;;;8.40;;
16075;SDS011;8142;48.242;11.644;2022-09-03T10:56:39;7.47;;;2.73;;
16075;SDS011;8142;48.242;11.644;2022-09-03T10:59:10;3.13;;;2.40;;
16075;SDS011;8142;48.242;11.644;2022-09-03T11:04:19;2.30;;;2.10;;
16075;SDS011;8142;48.242;11.644;2022-09-03T11:06:51;3.03;;;2.23;;
16075;SDS011;8142;48.242;11.644;2022-09-03T11:09:36;2.97;;;2.20;;
16075;SDS011;8142;48.242;11.644;2022-09-03T11:12:14;2.33;;;2.07;;
16075;SDS011;8142;48.242;11.644;2022-09-03T11:14:51;2.40;;;2.03;;
16075;SDS011;8142;48.242;11.644;2022-09-03T11:17:29;3.00;;;2.23;;
16075;SDS011;8142;48.242;11.644;2022-09-03T11:20:05;2.40;;;2.03;;
16075;SDS011;8142;48.242;11.644;2022-09-03T11:22:43;2.47;;;2.20;;
16075;SDS011;8142;48.242;11.644;2022-09-03T11:25:13;2.53;;;2.10;;
16075;SDS011;8142;48.242;11.644;2022-09-03T11:30:11;2.10;;;1.90;;
16075;SDS011;8142;48.242;11.644;2022-09-03T11:32:47;2.97;;;2.17;;
16075;SDS011;8142;48.242;11.644;2022-09-03T11:35:36;3.00;;;2.20;;
16075;SDS011;8142;48.242;11.644;2022-09-03T11:41:27;2.10;;;2.00;;
16075;SDS011;8142;48.242;11.644;2022-09-03T11:43:37;2.27;;;2.07;;
16075;SDS011;8142;48.242;11.644;2022-09-03T11:48:49;4.23;;;2.30;;
16075;SDS011;8142;48.242;11.644;2022-09-03T11:56:31;3.00;;;2.13;;
16075;SDS011;8142;48.242;11.644;2022-09-03T11:59:14;2.93;;;2.40;;
16075;SDS011;8142;48.242;11.644;2022-09-03T12:01:46;2.67;;;2.30;;
16075;SDS011;8142;48.242;11.644;2022-09-03T12:04:18;2.40;;;2.20;;
16075;SDS011;8142;48.242;11.644;2022-09-03T12:10:03;3.37;;;2.33;;
16075;SDS011;8142;48.242;11.644;2022-09-03T12:18:07;3.73;;;2.23;;
16075;SDS011;8142;48.242;11.644;2022-09-03T12:28:44;2.60;;;2.40;;
16075;SDS011;8142;48.242;11.644;2022-09-03T12:33:47;3.57;;;2.20;;
16075;SDS011;8142;48.242;11.644;2022-09-03T12:36:18;4.10;;;2.23;;
16075;SDS011;8142;48.242;11.644;2022-09-03T12:38:46;2.90;;;2.30;;
16075;SDS011;8142;48.242;11.644;2022-09-03T12:41:25;2.93;;;2.27;;
16075;SDS011;8142;48.242;11.644;2022-09-03T12:43:56;2.53;;;2.33;;
16075;SDS011;8142;48.242;11.644;2022-09-03T12:46:28;4.20;;;2.30;;
16075;SDS011;8142;48.242;11.644;2022-09-03T12:48:59;3.83;;;2.50;;
16075;SDS011;8142;48.242;11.644;2022-09-03T12:51:39;2.20;;;2.10;;
16075;SDS011;8142;48.242;11.644;2022-09-03T12:54:07;2.73;;;1.90;;
16075;SDS011;8142;48.242;11.644;2022-09-03T12:56:44;3.33;;;2.30;;
16075;SDS011;8142;48.242;11.644;2022-09-03T12:59:17;2.70;;;2.50;;
16075;SDS011;8142;48.242;11.644;2022-09-03T13:01:51;2.67;;;2.47;;
16075;SDS011;8142;48.242;11.644;2022-09-03T13:04:22;2.07;;;1.97;;
16075;SDS011;8142;48.242;11.644;2022-09-03T13:07:03;2.40;;;2.20;;
16075;SDS011;8142;48.242;11.644;2022-09-03T13:09:36;2.60;;;2.40;;
16075;SDS011;8142;48.242;11.644;2022-09-03T13:12:04;2.60;;;2.37;;
16075;SDS011;8142;48.242;11.644;2022-09-03T13:14:41;2.40;;;2.20;;
16075;SDS011;8142;48.242;11.644;2022-09-03T13:19:57;4.17;;;2.00;;
16075;SDS011;8142;48.242;11.644;2022-09-03T13:25:54;2.00;;;1.90;;
16075;SDS011;8142;48.242;11.644;2022-09-03T13:33:49;2.63;;;2.43;;
16075;SDS011;8142;48.242;11.644;2022-09-03T13:36:35;2.30;;;2.10;;
16075;SDS011;8142;48.242;11.644;2022-09-03T13:39:26;1.90;;;1.80;;
16075;SDS011;8142;48.242;11.644;2022-09-03T13:42:05;2.00;;;1.80;;
16075;SDS011;8142;48.242;11.644;2022-09-03T13:44:48;2.80;;;1.90;;
16075;SDS011;8142;48.242;11.644;2022-09-03T13:50:05;2.50;;;2.03;;
16075;SDS011;8142;48.242;11.644;2022-09-03T13:58:05;2.10;;;1.90;;
16075;SDS011;8142;48.242;11.644;2022-09-03T14:00:44;1.90;;;1.80;;
16075;SDS011;8142;48.242;11.644;2022-09-03T14:03:57;1.80;;;1.70;;
16075;SDS011;8142;48.242;11.644;2022-09-03T14:11:31;2.50;;;2.30;;
16075;SDS011;8142;48.242;11.644;2022-09-03T14:16:53;2.40;;;2.17;;
16075;SDS011;8142;48.242;11.644;2022-09-03T14:19:37;2.23;;;2.03;;
16075;SDS011;8142;48.242;11.644;2022-09-03T14:22:23;2.13;;;1.93;;
16075;SDS011;8142;48.242;11.644;2022-09-03T14:25:02;1.90;;;1.80;;
16075;SDS011;8142;48.242;11.644;2022-09-03T14:27:34;2.17;;;1.97;;
16075;SDS011;8142;48.242;11.644;2022-09-03T14:30:02;2.20;;;2.00;;
16075;SDS011;8142;48.242;11.644;2022-09-03T14:32:40;2.33;;;2.10;;
16075;SDS011;8142;48.242;11.644;2022-09-03T14:38:43;2.50;;;2.30;;
16075;SDS011;8142;48.242;11.644;2022-09-03T14:44:06;5.33;;;2.67;;
16075;SDS011;8142;48.242;11.644;2022-09-03T14:51:51;12.60;;;4.17;;
16075;SDS011;8142;48.242;11.644;2022-09-03T15:05:10;12.63;;;6.60;;
16075;SDS011;8142;48.242;11.644;2022-09-03T15:10:51;3.03;;;2.20;;
16075;SDS011;8142;48.242;11.644;2022-09-03T15:19:15;5.33;;;2.37;;
16075;SDS011;8142;48.242;11.644;2022-09-03T15:22:04;4.97;;;2.40;;
16075;SDS011;8142;48.242;11.644;2022-09-03T15:24:56;5.07;;;3.47;;
16075;SDS011;8142;48.242;11.644;2022-09-03T15:27:38;11.50;;;4.60;;
16075;SDS011;8142;48.242;11.644;2022-09-03T15:30:15;4.83;;;2.40;;
16075;SDS011;8142;48.242;11.644;2022-09-03T15:44:20;4.13;;;2.20;;
16075;SDS011;8142;48.242;11.644;2022-09-03T15:46:55;4.27;;;2.47;;
16075;SDS011;8142;48.242;11.644;2022-09-03T15:57:43;5.40;;;2.60;;
16075;SDS011;8142;48.242;11.644;2022-09-03T16:00:33;3.87;;;2.33;;
16075;SDS011;8142;48.242;11.644;2022-09-03T16:03:14;4.43;;;2.30;;
16075;SDS011;8142;48.242;11.644;2022-09-03T16:05:47;2.90;;;2.20;;
16075;SDS011;8142;48.242;11.644;2022-09-03T16:08:45;3.73;;;2.50;;
16075;SDS011;8142;48.242;11.644;2022-09-03T16:11:44;3.87;;;2.40;;
16075;SDS011;8142;48.242;11.644;2022-09-03T16:14:19;4.50;;;2.30;;
16075;SDS011;8142;48.242;11.644;2022-09-03T16:25:08;3.23;;;1.90;;
16075;SDS011;8142;48.242;11.644;2022-09-03T16:27:49;3.80;;;2.13;;
16075;SDS011;8142;48.242;11.644;2022-09-03T16:36:11;2.73;;;1.50;;
16075;SDS011;8142;48.242;11.644;2022-09-03T16:56:14;1.87;;;1.60;;
16075;SDS011;8142;48.242;11.644;2022-09-03T17:15:35;1.40;;;1.30;;
16075;SDS011;8142;48.242;11.644;2022-09-03T17:18:21;1.70;;;1.60;;
16075;SDS011;8142;48.242;11.644;2022-09-03T17:23:47;2.43;;;1.80;;
16075;SDS011;8142;48.242;11.644;2022-09-03T17:35:16;1.87;;;1.77;;
16075;SDS011;8142;48.242;11.644;2022-09-03T17:40:25;1.97;;;1.77;;
16075;SDS011;8142;48.242;11.644;2022-09-03T17:48:34;2.13;;;1.87;;
16075;SDS011;8142;48.242;11.644;2022-09-03T17:51:23;3.43;;;2.40;;
16075;SDS011;8142;48.242;11.644;2022-09-03T17:54:10;3.63;;;1.90;;
16075;SDS011;8142;48.242;11.644;2022-09-03T17:56:55;2.83;;;2.30;;
16075;SDS011;8142;48.242;11.644;2022-09-03T18:18:23;1.93;;;1.50;;
16075;SDS011;8142;48.242;11.644;2022-09-03T18:20:54;2.90;;;1.60;;
16075;SDS011;8142;48.242;11.644;2022-09-03T18:26:42;2.53;;;1.53;;
16075;SDS011;8142;48.242;11.644;2022-09-03T18:32:38;3.53;;;1.63;;
16075;SDS011;8142;48.242;11.644;2022-09-03T18:35:23;1.87;;;1.70;;
16075;SDS011;8142;48.242;11.644;2022-09-03T18:38:12;2.07;;;1.70;;
16075;SDS011;8142;48.242;11.644;2022-09-03T18:53:13;1.90;;;1.40;;
16075;SDS011;8142;48.242;11.644;2022-09-03T19:15:24;2.00;;;1.37;;
16075;SDS011;8142;48.242;11.644;2022-09-03T19:21:26;2.40;;;1.50;;
16075;SDS011;8142;48.242;11.644;2022-09-03T19:24:16;1.93;;;1.40;;
16075;SDS011;8142;48.242;11.644;2022-09-03T19:27:06;1.47;;;1.40;;
16075;SDS011;8142;48.242;11.644;2022-09-03T19:30:16;1.50;;;1.40;;
16075;SDS011;8142;48.242;11.644;2022-09-03T19:36:41;1.80;;;1.40;;
16075;SDS011;8142;48.242;11.644;2022-09-03T19:39:39;2.80;;;1.50;;
16075;SDS011;8142;48.242;11.644;2022-09-03T19:45:40;1.37;;;1.27;;
16075;SDS011;8142;48.242;11.644;2022-09-03T19:49:09;1.60;;;1.50;;
16075;SDS011;8142;48.242;11.644;2022-09-03T19:52:01;1.50;;;1.40;;
16075;SDS011;8142;48.242;11.644;2022-09-03T19:54:49;1.57;;;1.40;;
16075;SDS011;8142;48.242;11.644;2022-09-03T19:57:37;2.00;;;1.50;;
16075;SDS011;8142;48.242;11.644;2022-09-03T20:00:24;1.40;;;1.30;;
16075;SDS011;8142;48.242;11.644;2022-09-03T20:03:10;1.60;;;1.50;;
16075;SDS011;8142;48.242;11.644;2022-09-03T20:05:56;1.70;;;1.60;;
16075;SDS011;8142;48.242;11.644;2022-09-03T20:08:42;1.77;;;1.40;;
16075;SDS011;8142;48.242;11.644;2022-09-03T20:11:27;1.70;;;1.60;;
16075;SDS011;8142;48.242;11.644;2022-09-03T20:13:55;2.10;;;1.70;;
16075;SDS011;8142;48.242;11.644;2022-09-03T20:16:43;1.70;;;1.57;;
16075;SDS011;8142;48.242;11.644;2022-09-03T20:30:02;1.57;;;1.47;;
16075;SDS011;8142;48.242;11.644;2022-09-03T20:32:37;3.50;;;1.60;;
16075;SDS011;8142;48.242;11.644;2022-09-03T20:37:57;1.70;;;1.60;;
16075;SDS011;8142;48.242;11.644;2022-09-03T20:51:31;1.83;;;1.60;;
16075;SDS011;8142;48.242;11.644;2022-09-03T21:05:35;3.03;;;2.07;;
16075;SDS011;8142;48.242;11.644;2022-09-03T21:11:36;2.60;;;1.70;;
16075;SDS011;8142;48.242;11.644;2022-09-03T21:22:37;3.50;;;2.10;;
16075;SDS011;8142;48.242;11.644;2022-09-03T21:25:11;2.40;;;2.00;;
16075;SDS011;8142;48.242;11.644;2022-09-03T21:27:48;3.70;;;2.00;;
16075;SDS011;8142;48.242;11.644;2022-09-03T21:30:19;2.53;;;2.07;;
16075;SDS011;8142;48.242;11.644;2022-09-03T21:32:55;4.50;;;2.10;;
16075;SDS011;8142;48.242;11.644;2022-09-03T21:35:38;2.37;;;2.10;;
16075;SDS011;8142;48.242;11.644;2022-09-03T21:38:24;2.23;;;2.00;;
16075;SDS011;8142;48.242;11.644;2022-09-03T21:40:59;2.93;;;2.10;;
16075;SDS011;8142;48.242;11.644;2022-09-03T21:43:53;3.13;;;1.80;;
16075;SDS011;8142;48.242;11.644;2022-09-03T21:46:52;3.50;;;2.30;;